Terminal Aerodrome Forecast
Issued by NWS Shreveport, LA

Home | Current Version | Previous Version | Text Only | Print | Product List | Glossary On
Versions: 1 2 3 4 5 6 7 8 9 10 11 12 13 14 15 16 17 18 19
000
FTUS44 KSHV 281700
TAFMLU
TAF
KMLU 281720Z 2818/2918 36005KT P6SM SCT020 BKN120
     FM290000 36006KT P6SM SCT050 SCT250
     FM290600 02004KT P6SM SCT250=

USA.gov is the U.S. government's official web portal to all federal, state and local government web resources and services.